Grand Prairie, TX (75050)

2:49 PM CST on December 07, 2016 (GMT -0600)
Grand Prairie High School | | Change Station

Elev 528 ft 32.75 °N, 97.00 °W | Updated 5 seconds ago

Mostly Cloudy
Mostly Cloudy
52.5 °F
Feels Like 52.5 °F
N
2.7
Wind Variable Wind from NNW
Gusts 4.9 mph

Today
High -- | Low -- °F
--% Chance of Precip.
Yesterday
High -- | Low -- °F
Precip. -- in
Pressure 30.10 in
Visibility 10.0 miles
Clouds Scattered Clouds 2500 ft
Mostly Cloudy 4800 ft
Dew Point 44 °F
Humidity 73%
Rainfall 0.00 in
Snow Depth Not available.
7:17 AM 5:21 PM
First Quarter, 56% visible
METAR KGPM 071950Z 00000KT 10SM SCT025 BKN048 10/05 A3010
Pressure 30.10 in
Visibility 10.0 miles
Clouds Scattered Clouds 2500 ft
Mostly Cloudy 4800 ft
Dew Point 44 °F
Humidity 73%
Rainfall 0.00 in
Snow Depth Not available.
7:17 AM 5:21 PM
First Quarter, 56% visible
METAR KGPM 071950Z 00000KT 10SM SCT025 BKN048 10/05 A3010

10-Day Weather Forecast

Almanac

Astronomy

Dec. 07, 2016 Rise Set
Actual Time
Civil Twilight
Nautical Twilight
Astronomical Twilight
Moon
Length of Visible Light
Length of Day
Tomorrow will be .
, % of the Moon is Illuminated

Today's Extremes

State Highs State Lows

Community

WunderPhotos

Upload Photos

1,956,170 photos uploaded!

WunderBlog® & News

Nearby

Air Quality

  Air Quality AQ Index Pollutant
Not available.

Snow Depth

Station Depth Elevation

Earthquake Activity

City Distance Mag. Time & Date
Minimum magnitude displayed is 2.5.

Coastal Water Temperatures

Place Temperature

Stations

Nearby Weather Stations

Station Location Temp. Windchill Dew Point Humidity Wind Precip. Elev Updated Type
                   

Watches & Warnings

There are currently no watches in effect.